createdAt,value
2018-07-05T00:00:09.313Z,0.00
2018-07-05T00:01:09.334Z,0.00
2018-07-05T00:02:09.384Z,0.00
2018-07-05T00:03:09.437Z,0.00
2018-07-05T00:04:09.484Z,0.00
2018-07-05T00:05:09.580Z,0.00
2018-07-05T00:06:09.586Z,0.00
2018-07-05T00:07:09.641Z,0.00
2018-07-05T00:08:09.688Z,0.00
2018-07-05T00:09:09.739Z,0.00
2018-07-05T00:10:09.815Z,0.00
2018-07-05T00:11:09.868Z,0.00
2018-07-05T00:12:09.891Z,0.00
2018-07-05T00:13:09.943Z,0.00
2018-07-05T00:14:09.998Z,0.00
2018-07-05T00:15:10.046Z,0.00
2018-07-05T00:16:10.121Z,0.00
2018-07-05T00:17:10.143Z,0.00
2018-07-05T00:18:10.196Z,0.00
2018-07-05T00:19:10.242Z,0.00
2018-07-05T00:20:10.294Z,0.00
2018-07-05T00:21:10.367Z,0.00
2018-07-05T00:22:10.423Z,0.00
2018-07-05T00:23:10.447Z,0.00
2018-07-05T00:24:10.498Z,0.00
2018-07-05T00:25:10.550Z,0.00
2018-07-05T00:26:10.600Z,0.00
2018-07-05T00:27:10.670Z,0.00
2018-07-05T00:28:10.725Z,0.00
2018-07-05T00:29:10.749Z,0.00
2018-07-05T00:30:10.802Z,0.00
2018-07-05T00:31:10.849Z,0.00
2018-07-05T00:32:10.906Z,0.00
2018-07-05T00:33:10.976Z,0.00
2018-07-05T00:34:11.002Z,0.00
2018-07-05T00:35:11.054Z,0.00
2018-07-05T00:36:11.106Z,0.00
2018-07-05T00:37:11.159Z,0.00
2018-07-05T00:38:11.245Z,0.00
2018-07-05T00:39:11.256Z,0.00
2018-07-05T00:40:11.308Z,0.00
2018-07-05T00:41:11.356Z,0.00
2018-07-05T00:42:11.406Z,0.00
2018-07-05T00:43:11.498Z,0.00
2018-07-05T00:44:11.510Z,0.00
2018-07-05T00:45:11.561Z,0.00
2018-07-05T00:46:11.609Z,0.00
2018-07-05T00:47:11.663Z,0.00
2018-07-05T00:48:11.741Z,0.00
2018-07-05T00:49:11.760Z,0.00
2018-07-05T00:50:11.810Z,0.00
2018-07-05T00:51:11.861Z,0.00
2018-07-05T00:52:11.914Z,0.00
2018-07-05T00:53:11.987Z,0.00
2018-07-05T00:54:12.045Z,0.00
2018-07-05T00:55:12.066Z,0.00
2018-07-05T00:56:12.114Z,0.00
2018-07-05T00:57:12.165Z,0.00
2018-07-05T00:58:12.223Z,0.00
2018-07-05T00:59:12.304Z,0.00
2018-07-05T01:00:12.325Z,0.00
2018-07-05T01:01:12.365Z,0.00
2018-07-05T01:02:12.427Z,0.00
2018-07-05T01:03:12.466Z,0.00
2018-07-05T01:04:12.546Z,0.00
2018-07-05T01:05:12.592Z,0.00
2018-07-05T01:06:12.619Z,0.00
2018-07-05T01:07:12.669Z,0.00
2018-07-05T01:08:12.719Z,0.00
2018-07-05T01:09:12.776Z,0.00
2018-07-05T01:10:12.863Z,0.00
2018-07-05T01:11:12.871Z,0.00
2018-07-05T01:12:12.923Z,0.00
2018-07-05T01:13:12.982Z,0.00
2018-07-05T01:14:13.027Z,0.00
2018-07-05T01:15:13.098Z,0.00
2018-07-05T01:16:13.149Z,0.00
2018-07-05T01:17:13.176Z,0.00
2018-07-05T01:18:13.224Z,0.00
2018-07-05T01:19:13.282Z,0.00
2018-07-05T01:20:13.324Z,0.00
2018-07-05T01:21:13.400Z,0.00
2018-07-05T01:22:13.425Z,0.00
2018-07-05T01:23:13.476Z,0.00
2018-07-05T01:24:13.528Z,0.00
2018-07-05T01:25:13.577Z,0.00
2018-07-05T01:26:13.652Z,0.00
2018-07-05T01:27:13.679Z,0.00
2018-07-05T01:28:13.730Z,0.00
2018-07-05T01:29:13.783Z,0.00
2018-07-05T01:30:13.849Z,0.00
2018-07-05T01:31:13.905Z,0.00
2018-07-05T01:32:13.930Z,0.00
2018-07-05T01:33:13.983Z,0.00
2018-07-05T01:34:14.032Z,0.00
2018-07-05T01:35:14.081Z,0.00
2018-07-05T01:36:14.162Z,0.00
2018-07-05T01:37:14.181Z,0.00
2018-07-05T01:38:14.233Z,0.00
2018-07-05T01:39:14.284Z,0.00
2018-07-05T01:40:14.332Z,0.00
2018-07-05T01:41:14.412Z,0.00
2018-07-05T01:42:14.434Z,0.00
2018-07-05T01:43:14.483Z,0.00
2018-07-05T01:44:14.533Z,0.00
2018-07-05T01:45:14.586Z,0.00
2018-07-05T01:46:14.677Z,0.00
2018-07-05T01:47:14.688Z,0.00
2018-07-05T01:48:14.735Z,0.00
2018-07-05T01:49:14.785Z,0.00
2018-07-05T01:50:14.839Z,0.00
2018-07-05T01:51:14.920Z,0.00
2018-07-05T01:52:14.940Z,0.00
2018-07-05T01:53:14.988Z,0.00
2018-07-05T01:54:15.038Z,0.00
2018-07-05T01:55:15.086Z,0.00
2018-07-05T01:56:15.167Z,0.00
2018-07-05T01:57:15.186Z,0.00
2018-07-05T01:58:15.238Z,0.00
2018-07-05T01:59:15.288Z,0.00
2018-07-05T02:00:15.340Z,0.00
2018-07-05T02:01:15.424Z,0.00
2018-07-05T02:02:15.440Z,0.00
2018-07-05T02:03:15.489Z,0.00
2018-07-05T02:04:15.538Z,0.00
2018-07-05T02:05:15.588Z,0.00
2018-07-05T02:06:15.669Z,0.00
2018-07-05T02:07:15.690Z,0.00
2018-07-05T02:08:15.739Z,0.00
2018-07-05T02:09:15.790Z,0.00
2018-07-05T02:10:15.849Z,0.00
2018-07-05T02:11:15.915Z,0.00
2018-07-05T02:12:15.940Z,0.00
2018-07-05T02:13:16.015Z,0.00
2018-07-05T02:14:16.040Z,0.00
2018-07-05T02:15:16.096Z,0.00
2018-07-05T02:16:16.139Z,0.00
2018-07-05T02:17:16.193Z,0.00
2018-07-05T02:18:16.264Z,0.00
2018-07-05T02:19:16.290Z,0.00
2018-07-05T02:20:16.344Z,0.00
2018-07-05T02:21:16.392Z,0.00
2018-07-05T02:22:16.449Z,0.00
2018-07-05T02:23:16.518Z,0.00
2018-07-05T02:24:16.564Z,0.00
2018-07-05T02:25:16.592Z,0.00
2018-07-05T02:26:16.641Z,0.00
2018-07-05T02:27:16.691Z,0.00
2018-07-05T02:28:16.744Z,0.00
2018-07-05T02:29:16.816Z,0.00
2018-07-05T02:30:16.842Z,0.00
2018-07-05T02:31:16.896Z,0.00
2018-07-05T02:32:16.942Z,0.00
2018-07-05T02:33:16.994Z,0.00
2018-07-05T02:34:17.071Z,0.00
2018-07-05T02:35:17.093Z,0.00
2018-07-05T02:36:17.144Z,0.00
2018-07-05T02:37:17.197Z,0.00
2018-07-05T02:38:17.243Z,0.00
2018-07-05T02:39:17.316Z,0.00
2018-07-05T02:40:17.342Z,0.00
2018-07-05T02:41:17.392Z,0.00
2018-07-05T02:42:17.450Z,0.00
2018-07-05T02:43:17.493Z,0.00
2018-07-05T02:44:17.565Z,0.00
2018-07-05T02:45:17.592Z,0.00
2018-07-05T02:46:17.643Z,0.00
2018-07-05T02:47:17.692Z,0.00
2018-07-05T02:48:17.742Z,0.00
2018-07-05T02:49:17.822Z,0.00
2018-07-05T02:50:17.845Z,4.00
2018-07-05T02:51:17.893Z,4.00
2018-07-05T02:52:17.944Z,0.00
2018-07-05T02:53:17.995Z,0.00
2018-07-05T02:54:18.072Z,4.00
2018-07-05T02:55:18.094Z,4.00
2018-07-05T02:56:18.143Z,4.00
2018-07-05T02:57:18.194Z,4.00
2018-07-05T02:58:18.245Z,8.00
2018-07-05T02:59:18.317Z,4.00
2018-07-05T03:00:18.369Z,8.00
2018-07-05T03:01:18.397Z,8.00
2018-07-05T03:02:18.462Z,8.00
2018-07-05T03:03:18.494Z,8.00
2018-07-05T03:04:18.551Z,12.00
2018-07-05T03:05:18.636Z,12.00
2018-07-05T03:06:18.647Z,16.00
2018-07-05T03:07:18.696Z,16.00
2018-07-05T03:08:18.745Z,20.00
2018-07-05T03:09:18.798Z,24.00
2018-07-05T03:10:18.875Z,32.00
2018-07-05T03:11:18.898Z,32.00
2018-07-05T03:12:18.948Z,36.00
2018-07-05T03:13:18.999Z,44.00
2018-07-05T03:14:19.047Z,52.00
2018-07-05T03:15:19.132Z,56.00
2018-07-05T03:16:19.150Z,64.00
2018-07-05T03:17:19.202Z,72.00
2018-07-05T03:18:19.254Z,80.00
2018-07-05T03:19:19.301Z,92.00
2018-07-05T03:20:19.395Z,100.00
2018-07-05T03:21:19.411Z,108.00
2018-07-05T03:22:19.451Z,116.00
2018-07-05T03:23:19.502Z,128.00
2018-07-05T03:24:19.553Z,140.00
2018-07-05T03:25:19.626Z,164.00
2018-07-05T03:26:19.683Z,184.00
2018-07-05T03:27:19.702Z,204.00
2018-07-05T03:28:19.752Z,224.00
2018-07-05T03:29:19.802Z,248.00
2018-07-05T03:30:19.856Z,268.00
2018-07-05T03:31:19.929Z,292.00
2018-07-05T03:32:19.953Z,312.00
2018-07-05T03:33:20.005Z,336.00
2018-07-05T03:34:20.058Z,360.00
2018-07-05T03:35:20.105Z,396.00
2018-07-05T03:36:20.179Z,436.00
2018-07-05T03:37:20.206Z,492.00
2018-07-05T03:38:20.256Z,560.00
2018-07-05T03:39:20.309Z,640.00
2018-07-05T03:40:20.358Z,716.00
2018-07-05T03:41:20.495Z,788.00
2018-07-05T03:42:20.481Z,868.00
2018-07-05T03:43:20.511Z,944.00
2018-07-05T03:44:20.558Z,1012.00
2018-07-05T03:45:20.607Z,1068.00
2018-07-05T03:46:20.658Z,1132.00
2018-07-05T03:47:20.737Z,1212.00
2018-07-05T03:48:20.759Z,1304.00
2018-07-05T03:49:20.809Z,1368.00
2018-07-05T03:50:20.861Z,1396.00
2018-07-05T03:51:20.910Z,1396.00
2018-07-05T03:52:21.026Z,1416.00
2018-07-05T03:53:21.015Z,1456.00
2018-07-05T03:54:21.063Z,1500.00
2018-07-05T03:55:21.113Z,1520.00
2018-07-05T03:56:21.162Z,1544.00
2018-07-05T03:57:21.240Z,1608.00
2018-07-05T03:58:21.295Z,1708.00
2018-07-05T03:59:21.315Z,1824.00
2018-07-05T04:00:21.363Z,1960.00
2018-07-05T04:01:21.414Z,2100.00
2018-07-05T04:02:21.467Z,2204.00
2018-07-05T04:03:21.559Z,2280.00
2018-07-05T04:04:21.567Z,2340.00
2018-07-05T04:05:21.620Z,2400.00
2018-07-05T04:06:21.668Z,2480.00
2018-07-05T04:07:21.716Z,2580.00
2018-07-05T04:08:21.894Z,2696.00
2018-07-05T04:09:21.818Z,2836.00
2018-07-05T04:10:21.867Z,2984.00
2018-07-05T04:11:21.918Z,3128.00
2018-07-05T04:12:21.967Z,3240.00
2018-07-05T04:13:22.052Z,3328.00
2018-07-05T04:14:22.073Z,3396.00
2018-07-05T04:15:22.122Z,3444.00
2018-07-05T04:16:22.172Z,3500.00
2018-07-05T04:17:22.221Z,3536.00
2018-07-05T04:18:22.300Z,3556.00
2018-07-05T04:19:22.323Z,3544.00
2018-07-05T04:20:22.372Z,3516.00
2018-07-05T04:21:22.423Z,3496.00
2018-07-05T04:22:22.474Z,3468.00
2018-07-05T04:23:22.549Z,3448.00
2018-07-05T04:24:22.586Z,3460.00
2018-07-05T04:25:22.649Z,3492.00
2018-07-05T04:26:22.677Z,3548.00
2018-07-05T04:27:22.729Z,3632.00
2018-07-05T04:28:22.779Z,3736.00
2018-07-05T04:29:22.850Z,3852.00
2018-07-05T04:30:22.908Z,3960.00
2018-07-05T04:31:22.928Z,4060.00
2018-07-05T04:32:22.979Z,4156.00
2018-07-05T04:33:23.032Z,4232.00
2018-07-05T04:34:23.082Z,4264.00
2018-07-05T04:35:23.166Z,4276.00
2018-07-05T04:36:23.182Z,4312.00
2018-07-05T04:37:23.233Z,4344.00
2018-07-05T04:38:23.283Z,4376.00
2018-07-05T04:39:23.335Z,4396.00
2018-07-05T04:40:23.407Z,4376.00
2018-07-05T04:41:23.435Z,4332.00
2018-07-05T04:42:23.515Z,4296.00
2018-07-05T04:43:23.536Z,4236.00
2018-07-05T04:44:23.589Z,4188.00
2018-07-05T04:45:23.651Z,4152.00
2018-07-05T04:46:23.694Z,4128.00
2018-07-05T04:47:23.765Z,4108.00
2018-07-05T04:48:23.796Z,4088.00
2018-07-05T04:49:23.851Z,4036.00
2018-07-05T04:50:23.894Z,3988.00
2018-07-05T04:51:23.943Z,3936.00
2018-07-05T04:52:24.019Z,3888.00
2018-07-05T04:53:24.046Z,3828.00
2018-07-05T04:54:24.098Z,3776.00
2018-07-05T04:55:24.168Z,3736.00
2018-07-05T04:56:24.198Z,3712.00
2018-07-05T04:57:24.273Z,3704.00
2018-07-05T04:58:24.328Z,3720.00
2018-07-05T04:59:24.349Z,3740.00
2018-07-05T05:00:24.400Z,3764.00
2018-07-05T05:01:24.452Z,3792.00
2018-07-05T05:02:24.507Z,3820.00
2018-07-05T05:03:24.578Z,3868.00
2018-07-05T05:04:24.611Z,3936.00
2018-07-05T05:05:24.656Z,4016.00
2018-07-05T05:06:24.721Z,4120.00
2018-07-05T05:07:24.756Z,4228.00
2018-07-05T05:08:24.832Z,4356.00
2018-07-05T05:09:24.859Z,4492.00
2018-07-05T05:10:24.911Z,4616.00
2018-07-05T05:11:24.960Z,4716.00
2018-07-05T05:12:25.012Z,4808.00
2018-07-05T05:13:25.089Z,4884.00
2018-07-05T05:14:25.140Z,4948.00
2018-07-05T05:15:25.162Z,4996.00
2018-07-05T05:16:25.214Z,5040.00
2018-07-05T05:17:25.267Z,5076.00
2018-07-05T05:18:25.319Z,5120.00
2018-07-05T05:19:25.388Z,5152.00
2018-07-05T05:20:25.421Z,5180.00
2018-07-05T05:21:25.468Z,5196.00
2018-07-05T05:22:25.522Z,5188.00
2018-07-05T05:23:25.570Z,5160.00
2018-07-05T05:24:25.646Z,5124.00
2018-07-05T05:25:25.697Z,5112.00
2018-07-05T05:26:25.724Z,5136.00
2018-07-05T05:27:25.778Z,5200.00
2018-07-05T05:28:25.825Z,5292.00
2018-07-05T05:29:25.879Z,5392.00
2018-07-05T05:30:25.952Z,5492.00
2018-07-05T05:31:25.985Z,5576.00
2018-07-05T05:32:26.033Z,5652.00
2018-07-05T05:33:26.082Z,5716.00
2018-07-05T05:34:26.149Z,5784.00
2018-07-05T05:35:26.205Z,5864.00
2018-07-05T05:36:26.232Z,5956.00
2018-07-05T05:37:26.283Z,6048.00
2018-07-05T05:38:26.334Z,6140.00
2018-07-05T05:39:26.388Z,6240.00
2018-07-05T05:40:26.463Z,6332.00
2018-07-05T05:41:26.489Z,6424.00
2018-07-05T05:42:26.539Z,6524.00
2018-07-05T05:43:26.592Z,6632.00
2018-07-05T05:44:26.642Z,6744.00
2018-07-05T05:45:26.719Z,6876.00
2018-07-05T05:46:26.770Z,7032.00
2018-07-05T05:47:26.796Z,7244.00
2018-07-05T05:48:26.847Z,7492.00
2018-07-05T05:49:26.897Z,7772.00
2018-07-05T05:50:26.948Z,8096.00
2018-07-05T05:51:27.024Z,8452.00
2018-07-05T05:52:27.054Z,8812.00
2018-07-05T05:53:27.103Z,9188.00
2018-07-05T05:54:27.156Z,9536.00
2018-07-05T05:55:27.206Z,9828.00
2018-07-05T05:56:27.283Z,10060.00
2018-07-05T05:57:27.307Z,10204.00
2018-07-05T05:58:27.357Z,10324.00
2018-07-05T05:59:27.411Z,10444.00
2018-07-05T06:00:27.459Z,10548.00
2018-07-05T06:01:27.539Z,10688.00
2018-07-05T06:02:27.603Z,10872.00
2018-07-05T06:03:27.616Z,11056.00
2018-07-05T06:04:27.665Z,11208.00
2018-07-05T06:05:27.719Z,11344.00
2018-07-05T06:06:27.772Z,11452.00
2018-07-05T06:07:27.844Z,11540.00
2018-07-05T06:08:27.872Z,11640.00
2018-07-05T06:09:27.925Z,11796.00
2018-07-05T06:10:27.972Z,12036.00
2018-07-05T06:11:28.026Z,12244.00
2018-07-05T06:12:28.098Z,12428.00
2018-07-05T06:13:28.129Z,12684.00
2018-07-05T06:14:28.181Z,12912.00
2018-07-05T06:15:28.235Z,13080.00
2018-07-05T06:16:28.282Z,13208.00
2018-07-05T06:17:28.537Z,13224.00
2018-07-05T06:18:28.409Z,13204.00
2018-07-05T06:19:28.439Z,13288.00
2018-07-05T06:20:28.492Z,13328.00
2018-07-05T06:21:28.538Z,13216.00
2018-07-05T06:22:28.591Z,12944.00
2018-07-05T06:23:28.680Z,12556.00
2018-07-05T06:24:28.693Z,12148.00
2018-07-05T06:25:28.752Z,11912.00
2018-07-05T06:26:28.798Z,11812.00
2018-07-05T06:27:28.847Z,11756.00
2018-07-05T06:28:28.935Z,11732.00
2018-07-05T06:29:28.952Z,11724.00
2018-07-05T06:30:29.006Z,11704.00
2018-07-05T06:31:29.057Z,11696.00
2018-07-05T06:32:29.105Z,11720.00
2018-07-05T06:33:29.182Z,11772.00
2018-07-05T06:34:29.212Z,11808.00
2018-07-05T06:35:29.260Z,11788.00
2018-07-05T06:36:29.315Z,11728.00
2018-07-05T06:37:29.365Z,11624.00
2018-07-05T06:38:29.438Z,11448.00
2018-07-05T06:39:29.495Z,11144.00
2018-07-05T06:40:29.519Z,10720.00
2018-07-05T06:41:29.572Z,10280.00
2018-07-05T06:42:29.624Z,9844.00
2018-07-05T06:43:29.677Z,9420.00
2018-07-05T06:44:29.762Z,9000.00
2018-07-05T06:45:29.778Z,8572.00
2018-07-05T06:46:29.841Z,8100.00
2018-07-05T06:47:29.947Z,7636.00
2018-07-05T06:48:29.937Z,7256.00
2018-07-05T06:49:30.061Z,7000.00
2018-07-05T06:50:30.039Z,6868.00
2018-07-05T06:51:30.113Z,6800.00
2018-07-05T06:52:30.141Z,6736.00
2018-07-05T06:53:30.193Z,6628.00
2018-07-05T06:54:30.247Z,6488.00
2018-07-05T06:55:30.300Z,6348.00
2018-07-05T06:56:30.370Z,6216.00
2018-07-05T06:57:30.400Z,6060.00
2018-07-05T06:58:30.450Z,5880.00
2018-07-05T06:59:30.546Z,5688.00
2018-07-05T07:00:30.554Z,5504.00
2018-07-05T07:03:06.476Z,5164.00
2018-07-05T07:04:06.505Z,5124.00
2018-07-05T07:05:06.553Z,5144.00
2018-07-05T07:06:06.608Z,5232.00
2018-07-05T07:07:06.684Z,5360.00
2018-07-05T07:08:06.770Z,5520.00
2018-07-05T07:09:06.804Z,5704.00
2018-07-05T07:10:06.868Z,5916.00
2018-07-05T07:11:06.887Z,6152.00
2018-07-05T07:12:07.140Z,6416.00
2018-07-05T07:13:07.006Z,6688.00
2018-07-05T07:14:07.061Z,6944.00
2018-07-05T07:15:07.118Z,7184.00
2018-07-05T07:16:07.289Z,7396.00
2018-07-05T07:17:07.318Z,7584.00
2018-07-05T07:18:07.294Z,7760.00
2018-07-05T07:19:07.324Z,7924.00
2018-07-05T07:20:07.369Z,8080.00
2018-07-05T07:21:07.420Z,8220.00
2018-07-05T07:22:07.521Z,8364.00
2018-07-05T07:23:07.560Z,8508.00
2018-07-05T07:24:07.583Z,8684.00
2018-07-05T07:25:07.647Z,8888.00
2018-07-05T07:26:08.066Z,9132.00
2018-07-05T07:27:07.831Z,9388.00
2018-07-05T07:28:07.810Z,9620.00
2018-07-05T07:29:07.832Z,9832.00
2018-07-05T07:30:07.882Z,10012.00
2018-07-05T07:31:07.935Z,10184.00
2018-07-05T07:32:08.078Z,10356.00
2018-07-05T07:33:08.062Z,10564.00
2018-07-05T07:34:08.234Z,10820.00
2018-07-05T07:35:08.100Z,11168.00
2018-07-05T07:36:08.155Z,11628.00
2018-07-05T07:37:08.206Z,12212.00
2018-07-05T07:38:08.292Z,12900.00
2018-07-05T07:39:08.334Z,13684.00
2018-07-05T07:40:08.360Z,14532.00
2018-07-05T07:41:08.412Z,15416.00
2018-07-05T07:42:08.469Z,16304.00
2018-07-05T07:43:08.516Z,17136.00
2018-07-05T07:44:08.591Z,17952.00
2018-07-05T07:45:08.642Z,18368.00
2018-07-05T07:46:08.672Z,18592.00
2018-07-05T07:47:08.719Z,18816.00
2018-07-05T07:48:08.775Z,18848.00
2018-07-05T07:49:08.825Z,18848.00
2018-07-05T07:50:08.904Z,18688.00
2018-07-05T07:51:08.958Z,18432.00
2018-07-05T07:52:09.596Z,18144.00
2018-07-05T07:53:09.032Z,17888.00
2018-07-05T07:54:09.086Z,17760.00
2018-07-05T07:55:09.169Z,17760.00
2018-07-05T07:56:09.187Z,17792.00
2018-07-05T07:57:09.241Z,17856.00
2018-07-05T07:58:09.297Z,17952.00
2018-07-05T07:59:09.341Z,18144.00
2018-07-05T08:00:09.419Z,18336.00
2018-07-05T08:01:09.487Z,18528.00
2018-07-05T08:02:09.498Z,18816.00
2018-07-05T08:03:09.555Z,19072.00
2018-07-05T08:04:09.602Z,19264.00
2018-07-05T08:05:09.654Z,19488.00
2018-07-05T08:06:09.738Z,19744.00
2018-07-05T08:07:09.757Z,20128.00
2018-07-05T08:08:09.815Z,20384.00
2018-07-05T08:09:09.863Z,20640.00
2018-07-05T08:10:09.924Z,20896.00
2018-07-05T08:11:10.008Z,21376.00
2018-07-05T08:12:10.020Z,21856.00
2018-07-05T08:13:10.073Z,22304.00
2018-07-05T08:14:10.125Z,22784.00
2018-07-05T08:15:10.229Z,23200.00
2018-07-05T08:16:10.259Z,23488.00
2018-07-05T08:17:10.307Z,23904.00
2018-07-05T08:18:10.332Z,24608.00
2018-07-05T08:19:10.385Z,25344.00
2018-07-05T08:20:10.444Z,26016.00
2018-07-05T08:21:10.491Z,26496.00
2018-07-05T08:22:10.566Z,26752.00
2018-07-05T08:23:10.603Z,27008.00
2018-07-05T08:24:10.651Z,26976.00
2018-07-05T08:25:10.701Z,26944.00
2018-07-05T08:26:10.757Z,26944.00
2018-07-05T08:27:10.909Z,27296.00
2018-07-05T08:28:10.862Z,27840.00
2018-07-05T08:29:10.911Z,28384.00
2018-07-05T08:30:10.964Z,28736.00
2018-07-05T08:31:11.024Z,28896.00
2018-07-05T08:32:11.100Z,29760.00
2018-07-05T08:33:11.144Z,28704.00
2018-07-05T08:34:11.172Z,28416.00
2018-07-05T08:35:11.229Z,28736.00
2018-07-05T08:36:11.279Z,27104.00
2018-07-05T08:37:11.381Z,25440.00
2018-07-05T08:38:11.409Z,24160.00
2018-07-05T08:39:11.435Z,22848.00
2018-07-05T08:40:11.488Z,20416.00
2018-07-05T08:41:11.553Z,18784.00
2018-07-05T08:42:11.595Z,17384.00
2018-07-05T08:43:11.676Z,16484.00
2018-07-05T08:44:11.726Z,15948.00
2018-07-05T08:45:11.752Z,15788.00
2018-07-05T08:46:11.806Z,15888.00
2018-07-05T08:47:11.864Z,16144.00
2018-07-05T08:48:11.940Z,16424.00
2018-07-05T08:49:11.964Z,16608.00
2018-07-05T08:50:12.041Z,16668.00
2018-07-05T08:51:12.145Z,16520.00
2018-07-05T08:52:12.122Z,16288.00
2018-07-05T08:53:12.177Z,16056.00
2018-07-05T08:54:12.250Z,15844.00
2018-07-05T08:55:12.301Z,15584.00
2018-07-05T08:56:12.331Z,15356.00
2018-07-05T08:57:12.384Z,15152.00
2018-07-05T08:58:12.449Z,14860.00
2018-07-05T08:59:12.490Z,14512.00
2018-07-05T09:00:12.563Z,14144.00
2018-07-05T09:01:12.599Z,13912.00
2018-07-05T09:02:12.649Z,13844.00
2018-07-05T09:03:12.695Z,13960.00
2018-07-05T09:04:12.781Z,14148.00
2018-07-05T09:05:12.852Z,14388.00
2018-07-05T09:06:12.853Z,14584.00
2018-07-05T09:07:12.906Z,14832.00
2018-07-05T09:08:12.958Z,15052.00
2018-07-05T09:09:13.013Z,15296.00
2018-07-05T09:10:13.093Z,15524.00
2018-07-05T09:11:13.116Z,15644.00
2018-07-05T09:12:13.166Z,15508.00
2018-07-05T09:13:13.217Z,15268.00
2018-07-05T09:14:13.271Z,14872.00
2018-07-05T09:15:13.361Z,14548.00
2018-07-05T09:16:13.374Z,14292.00
2018-07-05T09:17:13.426Z,14120.00
2018-07-05T09:18:13.616Z,13944.00
2018-07-05T09:19:13.530Z,13860.00
2018-07-05T09:20:13.609Z,13848.00
2018-07-05T09:21:13.670Z,13852.00
2018-07-05T09:22:13.691Z,13852.00
2018-07-05T09:23:13.777Z,13912.00
2018-07-05T09:24:13.790Z,14000.00
2018-07-05T09:25:13.848Z,14092.00
2018-07-05T09:26:13.923Z,14096.00
2018-07-05T09:27:14.609Z,13964.00
2018-07-05T09:28:14.008Z,13748.00
2018-07-05T09:29:14.052Z,13448.00
2018-07-05T09:30:14.105Z,13192.00
2018-07-05T09:31:14.235Z,13008.00
2018-07-05T09:32:14.207Z,13008.00
2018-07-05T09:33:14.262Z,13144.00
2018-07-05T09:34:14.314Z,13472.00
2018-07-05T09:35:14.364Z,14008.00
2018-07-05T09:36:14.448Z,14728.00
2018-07-05T09:37:14.482Z,15612.00
2018-07-05T09:38:14.522Z,16704.00
2018-07-05T09:39:14.570Z,18048.00
2018-07-05T09:40:14.627Z,19264.00
2018-07-05T09:41:14.713Z,20288.00
2018-07-05T09:42:14.726Z,21024.00
2018-07-05T09:43:14.780Z,21600.00
2018-07-05T09:44:14.834Z,22176.00
2018-07-05T09:45:14.883Z,22816.00
2018-07-05T09:46:14.965Z,23520.00
2018-07-05T09:47:14.986Z,24448.00
2018-07-05T09:48:15.042Z,25408.00
2018-07-05T09:49:15.091Z,26368.00
2018-07-05T09:50:15.143Z,27328.00
2018-07-05T09:51:15.222Z,28256.00
2018-07-05T09:52:15.251Z,29120.00
2018-07-05T09:53:15.324Z,30112.00
2018-07-05T09:54:15.352Z,30432.00
2018-07-05T09:55:15.414Z,31040.00
2018-07-05T09:56:15.458Z,31968.00
2018-07-05T09:57:15.535Z,32768.00
2018-07-05T09:58:15.592Z,32512.00
2018-07-05T09:59:15.614Z,33728.00
2018-07-05T10:00:15.667Z,34880.00
2018-07-05T10:01:15.721Z,34656.00
2018-07-05T10:02:15.776Z,32992.00
2018-07-05T10:03:15.862Z,31936.00
2018-07-05T10:04:15.877Z,30496.00
2018-07-05T10:05:15.931Z,28864.00
2018-07-05T10:06:15.986Z,27200.00
2018-07-05T10:07:16.038Z,25824.00
2018-07-05T10:08:16.127Z,24832.00
2018-07-05T10:09:16.141Z,24256.00
2018-07-05T10:10:16.197Z,24192.00
2018-07-05T10:11:16.250Z,24160.00
2018-07-05T10:12:16.300Z,24864.00
2018-07-05T10:13:16.522Z,24704.00
2018-07-05T10:14:16.405Z,24384.00
2018-07-05T10:15:16.464Z,23424.00
2018-07-05T10:16:16.510Z,22528.00
2018-07-05T10:17:16.569Z,21696.00
2018-07-05T10:18:16.657Z,21088.00
2018-07-05T10:19:16.677Z,20768.00
2018-07-05T10:20:16.735Z,20896.00
2018-07-05T10:21:16.776Z,21280.00
2018-07-05T10:22:16.832Z,21792.00
2018-07-05T10:23:16.903Z,22048.00
2018-07-05T10:24:16.964Z,22208.00
2018-07-05T10:25:16.990Z,22976.00
2018-07-05T10:26:17.048Z,23424.00
2018-07-05T10:27:17.092Z,24448.00
2018-07-05T10:28:17.153Z,25344.00
2018-07-05T10:29:17.230Z,26048.00
2018-07-05T10:30:17.254Z,26432.00
2018-07-05T10:31:17.308Z,26368.00
2018-07-05T10:32:17.359Z,26016.00
2018-07-05T10:33:17.409Z,25632.00
2018-07-05T10:34:17.502Z,25280.00
2018-07-05T10:35:17.513Z,24896.00
2018-07-05T10:36:17.571Z,24512.00
2018-07-05T10:37:17.623Z,24096.00
2018-07-05T10:38:17.677Z,23616.00
2018-07-05T10:39:17.750Z,22880.00
2018-07-05T10:40:17.780Z,22048.00
2018-07-05T10:41:17.830Z,20864.00
2018-07-05T10:42:17.887Z,19296.00
2018-07-05T10:43:17.944Z,17516.00
2018-07-05T10:44:18.013Z,16344.00
2018-07-05T10:45:18.067Z,15668.00
2018-07-05T10:46:18.097Z,15264.00
2018-07-05T10:47:18.147Z,14940.00
2018-07-05T10:48:18.213Z,14468.00
2018-07-05T10:49:18.252Z,13852.00
2018-07-05T10:50:18.331Z,13260.00
2018-07-05T10:51:18.357Z,12644.00
2018-07-05T10:52:18.411Z,11936.00
2018-07-05T10:53:18.464Z,11492.00
2018-07-05T10:54:18.514Z,11088.00
2018-07-05T10:55:18.625Z,11284.00
2018-07-05T10:56:18.621Z,11224.00
2018-07-05T10:57:18.671Z,11408.00
2018-07-05T10:58:18.726Z,11236.00
2018-07-05T10:59:18.774Z,11188.00
2018-07-05T11:00:18.862Z,11368.00
2018-07-05T11:01:18.882Z,11632.00
2018-07-05T11:02:18.933Z,11840.00
2018-07-05T11:03:18.984Z,11672.00
2018-07-05T11:04:19.036Z,11856.00
2018-07-05T11:05:19.128Z,11992.00
2018-07-05T11:06:19.141Z,12408.00
2018-07-05T11:07:19.196Z,12792.00
2018-07-05T11:08:19.245Z,13144.00
2018-07-05T11:09:19.300Z,13332.00
2018-07-05T11:10:19.378Z,13496.00
2018-07-05T11:11:19.405Z,13688.00
2018-07-05T11:12:19.476Z,13824.00
2018-07-05T11:13:19.505Z,14016.00
2018-07-05T11:14:19.607Z,14252.00
2018-07-05T11:15:19.609Z,14268.00
2018-07-05T11:16:19.686Z,14372.00
2018-07-05T11:17:19.715Z,14540.00
2018-07-05T11:18:19.772Z,14804.00
2018-07-05T11:19:19.817Z,15680.00
2018-07-05T11:20:19.872Z,15812.00
2018-07-05T11:21:19.951Z,15940.00
2018-07-05T11:22:19.976Z,15824.00
2018-07-05T11:23:20.048Z,15528.00
2018-07-05T11:24:20.076Z,14908.00
2018-07-05T11:25:20.129Z,14348.00
2018-07-05T11:26:20.212Z,13244.00
2018-07-05T11:27:20.249Z,12464.00
2018-07-05T11:28:20.282Z,11552.00
2018-07-05T11:29:20.358Z,10656.00
2018-07-05T11:30:20.397Z,9912.00
2018-07-05T11:31:20.438Z,9436.00
2018-07-05T11:32:20.517Z,9124.00
2018-07-05T11:33:20.544Z,8984.00
2018-07-05T11:34:20.621Z,8992.00
2018-07-05T11:35:20.646Z,9172.00
2018-07-05T11:36:20.726Z,9428.00
2018-07-05T11:37:20.771Z,9924.00
2018-07-05T11:38:20.801Z,10312.00
2018-07-05T11:39:20.852Z,10768.00
2018-07-05T11:40:20.903Z,11224.00
2018-07-05T11:41:20.955Z,11716.00
2018-07-05T11:42:21.075Z,12156.00
2018-07-05T11:43:21.065Z,12564.00
2018-07-05T11:44:21.142Z,13000.00
2018-07-05T11:45:21.169Z,13440.00
2018-07-05T11:46:21.215Z,13956.00
2018-07-05T11:47:21.295Z,14440.00
2018-07-05T11:48:21.319Z,14972.00
2018-07-05T11:49:21.372Z,15364.00
2018-07-05T11:50:21.421Z,15804.00
2018-07-05T11:51:21.473Z,15940.00
2018-07-05T11:52:21.602Z,15992.00
2018-07-05T11:53:21.581Z,15884.00
2018-07-05T11:54:21.627Z,15668.00
2018-07-05T11:55:21.678Z,15380.00
2018-07-05T11:56:21.733Z,15120.00
2018-07-05T11:57:21.816Z,14912.00
2018-07-05T11:58:21.839Z,14808.00
2018-07-05T11:59:21.887Z,14844.00
2018-07-05T12:00:21.938Z,15580.00
2018-07-05T12:01:21.991Z,15704.00
2018-07-05T12:02:22.075Z,15460.00
2018-07-05T12:03:22.094Z,15336.00
2018-07-05T12:04:22.147Z,15348.00
2018-07-05T12:05:22.202Z,15396.00
2018-07-05T12:06:22.249Z,16104.00
2018-07-05T12:07:22.335Z,16324.00
2018-07-05T12:08:22.384Z,16476.00
2018-07-05T12:09:22.403Z,16576.00
2018-07-05T12:10:22.461Z,16588.00
2018-07-05T12:11:22.510Z,16584.00
2018-07-05T12:12:22.614Z,16168.00
2018-07-05T12:13:22.640Z,16328.00
2018-07-05T12:14:22.660Z,16188.00
2018-07-05T12:15:22.711Z,16228.00
2018-07-05T12:16:22.769Z,16236.00